sensor_id;sensor_type;location;lat;lon;timestamp;P1;durP1;ratioP1;P2;durP2;ratioP2
62006;SDS011;47963;53.008;6.754;2022-09-14T00:01:05;15.00;;;4.60;;
62006;SDS011;47963;53.008;6.754;2022-09-14T00:03:32;15.68;;;4.78;;
62006;SDS011;47963;53.008;6.754;2022-09-14T00:06:07;16.25;;;4.40;;
62006;SDS011;47963;53.008;6.754;2022-09-14T00:08:35;11.32;;;4.70;;
62006;SDS011;47963;53.008;6.754;2022-09-14T00:11:09;15.00;;;5.10;;
62006;SDS011;47963;53.008;6.754;2022-09-14T00:13:36;14.48;;;5.20;;
62006;SDS011;47963;53.008;6.754;2022-09-14T00:16:04;17.90;;;5.05;;
62006;SDS011;47963;53.008;6.754;2022-09-14T00:18:33;11.40;;;4.40;;
62006;SDS011;47963;53.008;6.754;2022-09-14T00:21:03;16.95;;;5.35;;
62006;SDS011;47963;53.008;6.754;2022-09-14T00:23:30;15.27;;;5.72;;
62006;SDS011;47963;53.008;6.754;2022-09-14T00:26:01;15.77;;;5.63;;
62006;SDS011;47963;53.008;6.754;2022-09-14T00:28:28;17.58;;;6.45;;
62006;SDS011;47963;53.008;6.754;2022-09-14T00:30:53;18.40;;;5.50;;
62006;SDS011;47963;53.008;6.754;2022-09-14T00:33:19;17.80;;;5.72;;
62006;SDS011;47963;53.008;6.754;2022-09-14T00:35:45;13.80;;;5.68;;
62006;SDS011;47963;53.008;6.754;2022-09-14T00:38:10;14.68;;;6.20;;
62006;SDS011;47963;53.008;6.754;2022-09-14T00:40:36;20.15;;;7.32;;
62006;SDS011;47963;53.008;6.754;2022-09-14T00:43:04;18.23;;;6.65;;
62006;SDS011;47963;53.008;6.754;2022-09-14T00:45:35;14.98;;;6.20;;
62006;SDS011;47963;53.008;6.754;2022-09-14T00:48:01;16.23;;;6.47;;
62006;SDS011;47963;53.008;6.754;2022-09-14T00:50:27;22.05;;;7.30;;
62006;SDS011;47963;53.008;6.754;2022-09-14T00:52:52;20.15;;;6.93;;
62006;SDS011;47963;53.008;6.754;2022-09-14T00:55:21;21.92;;;7.18;;
62006;SDS011;47963;53.008;6.754;2022-09-14T00:57:51;16.75;;;7.05;;
62006;SDS011;47963;53.008;6.754;2022-09-14T01:00:19;17.60;;;7.07;;
62006;SDS011;47963;53.008;6.754;2022-09-14T01:02:47;20.40;;;7.40;;
62006;SDS011;47963;53.008;6.754;2022-09-14T01:05:13;18.77;;;7.35;;
62006;SDS011;47963;53.008;6.754;2022-09-14T01:18:27;18.30;;;6.82;;
62006;SDS011;47963;53.008;6.754;2022-09-14T01:21:08;17.67;;;7.30;;
62006;SDS011;47963;53.008;6.754;2022-09-14T01:32:42;17.25;;;6.60;;
62006;SDS011;47963;53.008;6.754;2022-09-14T01:35:18;18.58;;;6.85;;
62006;SDS011;47963;53.008;6.754;2022-09-14T01:40:28;18.30;;;6.63;;
62006;SDS011;47963;53.008;6.754;2022-09-14T01:43:02;15.02;;;6.93;;
62006;SDS011;47963;53.008;6.754;2022-09-14T01:45:35;15.13;;;7.00;;
62006;SDS011;47963;53.008;6.754;2022-09-14T01:48:06;15.05;;;7.10;;
62006;SDS011;47963;53.008;6.754;2022-09-14T01:50:41;17.80;;;7.30;;
62006;SDS011;47963;53.008;6.754;2022-09-14T01:53:17;16.10;;;6.90;;
62006;SDS011;47963;53.008;6.754;2022-09-14T01:55:50;22.60;;;7.32;;
62006;SDS011;47963;53.008;6.754;2022-09-14T01:58:27;14.00;;;6.63;;
62006;SDS011;47963;53.008;6.754;2022-09-14T02:00:59;17.15;;;6.97;;
62006;SDS011;47963;53.008;6.754;2022-09-14T02:03:33;14.05;;;6.90;;
62006;SDS011;47963;53.008;6.754;2022-09-14T02:06:07;20.52;;;8.00;;
62006;SDS011;47963;53.008;6.754;2022-09-14T02:08:40;16.23;;;6.65;;
62006;SDS011;47963;53.008;6.754;2022-09-14T02:11:06;22.58;;;6.93;;
62006;SDS011;47963;53.008;6.754;2022-09-14T02:13:32;13.23;;;6.70;;
62006;SDS011;47963;53.008;6.754;2022-09-14T02:15:58;14.88;;;7.53;;
62006;SDS011;47963;53.008;6.754;2022-09-14T02:18:23;17.27;;;7.35;;
62006;SDS011;47963;53.008;6.754;2022-09-14T02:20:53;18.50;;;7.65;;
62006;SDS011;47963;53.008;6.754;2022-09-14T02:23:22;19.00;;;7.70;;
62006;SDS011;47963;53.008;6.754;2022-09-14T02:25:48;19.13;;;7.47;;
62006;SDS011;47963;53.008;6.754;2022-09-14T02:28:14;14.75;;;6.90;;
62006;SDS011;47963;53.008;6.754;2022-09-14T02:33:44;17.15;;;7.40;;
62006;SDS011;47963;53.008;6.754;2022-09-14T02:36:37;17.65;;;7.03;;
62006;SDS011;47963;53.008;6.754;2022-09-14T02:39:10;18.88;;;7.30;;
62006;SDS011;47963;53.008;6.754;2022-09-14T02:41:41;14.98;;;6.82;;
62006;SDS011;47963;53.008;6.754;2022-09-14T02:57:31;14.38;;;6.28;;
62006;SDS011;47963;53.008;6.754;2022-09-14T02:59:57;16.48;;;6.28;;
62006;SDS011;47963;53.008;6.754;2022-09-14T03:02:23;14.13;;;6.32;;
62006;SDS011;47963;53.008;6.754;2022-09-14T03:04:48;16.77;;;6.43;;
62006;SDS011;47963;53.008;6.754;2022-09-14T03:07:14;17.95;;;6.93;;
62006;SDS011;47963;53.008;6.754;2022-09-14T03:09:39;14.25;;;6.50;;
62006;SDS011;47963;53.008;6.754;2022-09-14T03:12:05;16.08;;;6.70;;
62006;SDS011;47963;53.008;6.754;2022-09-14T03:14:31;16.63;;;6.40;;
62006;SDS011;47963;53.008;6.754;2022-09-14T03:16:56;14.38;;;6.40;;
62006;SDS011;47963;53.008;6.754;2022-09-14T03:19:22;12.93;;;5.20;;
62006;SDS011;47963;53.008;6.754;2022-09-14T03:21:47;17.70;;;5.40;;
62006;SDS011;47963;53.008;6.754;2022-09-14T03:24:13;11.50;;;5.65;;
62006;SDS011;47963;53.008;6.754;2022-09-14T03:26:39;18.60;;;6.03;;
62006;SDS011;47963;53.008;6.754;2022-09-14T03:29:05;14.27;;;5.97;;
62006;SDS011;47963;53.008;6.754;2022-09-14T03:31:30;14.75;;;6.03;;
62006;SDS011;47963;53.008;6.754;2022-09-14T03:33:57;19.25;;;6.00;;
62006;SDS011;47963;53.008;6.754;2022-09-14T03:36:25;15.20;;;5.47;;
62006;SDS011;47963;53.008;6.754;2022-09-14T03:38:53;15.80;;;5.28;;
62006;SDS011;47963;53.008;6.754;2022-09-14T03:41:21;15.05;;;5.40;;
62006;SDS011;47963;53.008;6.754;2022-09-14T03:43:47;12.27;;;5.38;;
62006;SDS011;47963;53.008;6.754;2022-09-14T03:46:17;12.48;;;5.70;;
62006;SDS011;47963;53.008;6.754;2022-09-14T03:48:45;14.05;;;5.45;;
62006;SDS011;47963;53.008;6.754;2022-09-14T03:51:11;11.48;;;4.65;;
62006;SDS011;47963;53.008;6.754;2022-09-14T03:53:38;13.00;;;5.50;;
62006;SDS011;47963;53.008;6.754;2022-09-14T03:56:22;12.48;;;5.55;;
62006;SDS011;47963;53.008;6.754;2022-09-14T03:58:48;10.73;;;5.40;;
62006;SDS011;47963;53.008;6.754;2022-09-14T04:01:15;11.80;;;5.05;;
62006;SDS011;47963;53.008;6.754;2022-09-14T04:03:43;14.20;;;5.63;;
62006;SDS011;47963;53.008;6.754;2022-09-14T04:06:09;13.23;;;5.28;;
62006;SDS011;47963;53.008;6.754;2022-09-14T04:08:35;11.48;;;5.30;;
62006;SDS011;47963;53.008;6.754;2022-09-14T04:11:09;13.95;;;6.05;;
62006;SDS011;47963;53.008;6.754;2022-09-14T04:13:40;13.43;;;5.70;;
62006;SDS011;47963;53.008;6.754;2022-09-14T04:16:06;11.48;;;4.88;;
62006;SDS011;47963;53.008;6.754;2022-09-14T04:18:33;11.10;;;4.97;;
62006;SDS011;47963;53.008;6.754;2022-09-14T04:21:00;11.77;;;4.63;;
62006;SDS011;47963;53.008;6.754;2022-09-14T04:23:27;11.52;;;4.50;;
62006;SDS011;47963;53.008;6.754;2022-09-14T04:25:53;12.02;;;4.85;;
62006;SDS011;47963;53.008;6.754;2022-09-14T04:28:20;9.63;;;4.22;;
62006;SDS011;47963;53.008;6.754;2022-09-14T04:30:59;12.82;;;4.80;;
62006;SDS011;47963;53.008;6.754;2022-09-14T04:33:29;11.02;;;4.20;;
62006;SDS011;47963;53.008;6.754;2022-09-14T04:35:57;11.20;;;4.60;;
62006;SDS011;47963;53.008;6.754;2022-09-14T04:38:25;12.48;;;5.32;;
62006;SDS011;47963;53.008;6.754;2022-09-14T04:40:52;12.27;;;4.68;;
62006;SDS011;47963;53.008;6.754;2022-09-14T04:43:17;12.82;;;4.90;;
62006;SDS011;47963;53.008;6.754;2022-09-14T04:45:43;12.88;;;4.90;;
62006;SDS011;47963;53.008;6.754;2022-09-14T04:48:09;9.27;;;4.20;;
62006;SDS011;47963;53.008;6.754;2022-09-14T04:50:35;10.55;;;3.97;;
62006;SDS011;47963;53.008;6.754;2022-09-14T04:53:01;10.32;;;4.15;;
62006;SDS011;47963;53.008;6.754;2022-09-14T04:55:27;9.07;;;4.03;;
62006;SDS011;47963;53.008;6.754;2022-09-14T04:57:52;10.98;;;4.10;;
62006;SDS011;47963;53.008;6.754;2022-09-14T05:00:18;11.25;;;4.25;;
62006;SDS011;47963;53.008;6.754;2022-09-14T05:02:44;10.13;;;4.05;;
62006;SDS011;47963;53.008;6.754;2022-09-14T05:05:10;12.32;;;4.38;;
62006;SDS011;47963;53.008;6.754;2022-09-14T05:07:36;10.35;;;3.88;;
62006;SDS011;47963;53.008;6.754;2022-09-14T05:10:02;11.55;;;3.90;;
62006;SDS011;47963;53.008;6.754;2022-09-14T05:12:29;8.95;;;3.47;;
62006;SDS011;47963;53.008;6.754;2022-09-14T05:14:54;12.15;;;3.88;;
62006;SDS011;47963;53.008;6.754;2022-09-14T05:17:20;9.63;;;3.38;;
62006;SDS011;47963;53.008;6.754;2022-09-14T05:19:45;9.68;;;3.15;;
62006;SDS011;47963;53.008;6.754;2022-09-14T05:22:11;8.85;;;3.25;;
62006;SDS011;47963;53.008;6.754;2022-09-14T05:24:38;10.23;;;3.47;;
62006;SDS011;47963;53.008;6.754;2022-09-14T05:27:04;11.50;;;3.65;;
62006;SDS011;47963;53.008;6.754;2022-09-14T05:29:29;10.90;;;3.80;;
62006;SDS011;47963;53.008;6.754;2022-09-14T05:31:55;11.27;;;3.60;;
62006;SDS011;47963;53.008;6.754;2022-09-14T05:34:21;10.88;;;3.65;;
62006;SDS011;47963;53.008;6.754;2022-09-14T05:36:47;9.73;;;3.30;;
62006;SDS011;47963;53.008;6.754;2022-09-14T05:39:13;11.40;;;3.35;;
62006;SDS011;47963;53.008;6.754;2022-09-14T05:41:38;9.48;;;3.30;;
62006;SDS011;47963;53.008;6.754;2022-09-14T05:44:04;10.80;;;3.35;;
62006;SDS011;47963;53.008;6.754;2022-09-14T05:46:30;9.18;;;3.47;;
62006;SDS011;47963;53.008;6.754;2022-09-14T05:48:56;9.98;;;3.30;;
62006;SDS011;47963;53.008;6.754;2022-09-14T05:51:22;10.23;;;3.30;;
62006;SDS011;47963;53.008;6.754;2022-09-14T05:53:50;10.07;;;3.20;;
62006;SDS011;47963;53.008;6.754;2022-09-14T05:56:21;8.98;;;3.10;;
62006;SDS011;47963;53.008;6.754;2022-09-14T05:58:48;9.23;;;3.20;;
62006;SDS011;47963;53.008;6.754;2022-09-14T06:01:21;8.88;;;3.08;;
62006;SDS011;47963;53.008;6.754;2022-09-14T06:03:52;9.10;;;2.92;;
62006;SDS011;47963;53.008;6.754;2022-09-14T06:06:19;9.60;;;3.58;;
62006;SDS011;47963;53.008;6.754;2022-09-14T06:08:47;9.50;;;3.20;;
62006;SDS011;47963;53.008;6.754;2022-09-14T06:11:17;9.65;;;3.28;;
62006;SDS011;47963;53.008;6.754;2022-09-14T06:13:45;8.88;;;3.05;;
62006;SDS011;47963;53.008;6.754;2022-09-14T06:16:12;7.35;;;3.10;;
62006;SDS011;47963;53.008;6.754;2022-09-14T06:18:40;11.95;;;3.40;;
62006;SDS011;47963;53.008;6.754;2022-09-14T06:21:07;10.77;;;3.58;;
62006;SDS011;47963;53.008;6.754;2022-09-14T06:23:33;8.65;;;3.60;;
62006;SDS011;47963;53.008;6.754;2022-09-14T06:26:00;8.90;;;3.25;;
62006;SDS011;47963;53.008;6.754;2022-09-14T06:28:28;10.88;;;3.45;;
62006;SDS011;47963;53.008;6.754;2022-09-14T06:30:54;10.32;;;3.60;;
62006;SDS011;47963;53.008;6.754;2022-09-14T06:33:20;13.02;;;3.42;;
62006;SDS011;47963;53.008;6.754;2022-09-14T06:35:57;9.68;;;3.42;;
62006;SDS011;47963;53.008;6.754;2022-09-14T06:38:24;12.65;;;3.58;;
62006;SDS011;47963;53.008;6.754;2022-09-14T06:40:51;10.25;;;3.40;;
62006;SDS011;47963;53.008;6.754;2022-09-14T06:43:17;9.52;;;3.20;;
62006;SDS011;47963;53.008;6.754;2022-09-14T06:45:43;10.52;;;3.28;;
62006;SDS011;47963;53.008;6.754;2022-09-14T06:48:18;8.23;;;2.97;;
62006;SDS011;47963;53.008;6.754;2022-09-14T06:50:44;8.43;;;2.95;;
62006;SDS011;47963;53.008;6.754;2022-09-14T06:53:09;9.20;;;3.15;;
62006;SDS011;47963;53.008;6.754;2022-09-14T06:55:35;8.02;;;2.83;;
62006;SDS011;47963;53.008;6.754;2022-09-14T06:58:00;9.63;;;2.92;;
62006;SDS011;47963;53.008;6.754;2022-09-14T07:00:27;9.20;;;2.78;;
62006;SDS011;47963;53.008;6.754;2022-09-14T07:02:53;7.72;;;2.90;;
62006;SDS011;47963;53.008;6.754;2022-09-14T07:05:18;9.05;;;2.70;;
62006;SDS011;47963;53.008;6.754;2022-09-14T07:07:49;9.32;;;2.60;;
62006;SDS011;47963;53.008;6.754;2022-09-14T07:10:16;8.70;;;2.80;;
62006;SDS011;47963;53.008;6.754;2022-09-14T07:12:42;10.98;;;2.95;;
62006;SDS011;47963;53.008;6.754;2022-09-14T07:15:07;10.02;;;2.75;;
62006;SDS011;47963;53.008;6.754;2022-09-14T07:17:33;10.30;;;2.70;;
62006;SDS011;47963;53.008;6.754;2022-09-14T07:20:01;8.88;;;2.58;;
62006;SDS011;47963;53.008;6.754;2022-09-14T07:22:31;9.52;;;2.88;;
62006;SDS011;47963;53.008;6.754;2022-09-14T07:24:58;8.90;;;2.63;;
62006;SDS011;47963;53.008;6.754;2022-09-14T07:27:23;10.07;;;2.80;;
62006;SDS011;47963;53.008;6.754;2022-09-14T07:29:49;8.73;;;2.85;;
62006;SDS011;47963;53.008;6.754;2022-09-14T07:32:15;9.35;;;2.65;;
62006;SDS011;47963;53.008;6.754;2022-09-14T07:34:40;9.40;;;2.45;;
62006;SDS011;47963;53.008;6.754;2022-09-14T07:37:06;9.07;;;2.47;;
62006;SDS011;47963;53.008;6.754;2022-09-14T07:39:31;9.82;;;2.80;;
62006;SDS011;47963;53.008;6.754;2022-09-14T07:41:57;10.77;;;3.05;;
62006;SDS011;47963;53.008;6.754;2022-09-14T07:44:23;8.20;;;2.58;;
62006;SDS011;47963;53.008;6.754;2022-09-14T07:46:48;6.97;;;2.40;;
62006;SDS011;47963;53.008;6.754;2022-09-14T07:49:14;7.93;;;2.20;;
62006;SDS011;47963;53.008;6.754;2022-09-14T07:51:41;9.82;;;2.50;;
62006;SDS011;47963;53.008;6.754;2022-09-14T07:54:07;9.00;;;2.20;;
62006;SDS011;47963;53.008;6.754;2022-09-14T07:56:36;6.97;;;1.98;;
62006;SDS011;47963;53.008;6.754;2022-09-14T07:59:02;7.93;;;1.88;;
62006;SDS011;47963;53.008;6.754;2022-09-14T08:01:29;8.93;;;2.00;;
62006;SDS011;47963;53.008;6.754;2022-09-14T08:03:56;7.03;;;1.60;;
62006;SDS011;47963;53.008;6.754;2022-09-14T08:06:26;6.30;;;1.52;;
62006;SDS011;47963;53.008;6.754;2022-09-14T08:08:53;6.90;;;1.50;;
62006;SDS011;47963;53.008;6.754;2022-09-14T08:11:24;8.48;;;1.90;;
62006;SDS011;47963;53.008;6.754;2022-09-14T08:13:58;8.40;;;1.67;;
62006;SDS011;47963;53.008;6.754;2022-09-14T08:16:26;7.60;;;1.63;;
62006;SDS011;47963;53.008;6.754;2022-09-14T08:18:56;8.27;;;1.45;;
62006;SDS011;47963;53.008;6.754;2022-09-14T08:21:27;8.05;;;1.35;;
62006;SDS011;47963;53.008;6.754;2022-09-14T08:23:53;8.25;;;1.60;;
62006;SDS011;47963;53.008;6.754;2022-09-14T08:26:22;7.05;;;1.27;;
62006;SDS011;47963;53.008;6.754;2022-09-14T08:28:49;7.78;;;1.42;;
62006;SDS011;47963;53.008;6.754;2022-09-14T08:31:19;7.20;;;1.50;;
62006;SDS011;47963;53.008;6.754;2022-09-14T08:33:47;7.55;;;1.50;;
62006;SDS011;47963;53.008;6.754;2022-09-14T08:36:25;8.40;;;1.42;;
62006;SDS011;47963;53.008;6.754;2022-09-14T08:38:52;9.80;;;1.60;;
62006;SDS011;47963;53.008;6.754;2022-09-14T08:43:54;10.02;;;1.60;;
62006;SDS011;47963;53.008;6.754;2022-09-14T08:46:30;7.80;;;1.83;;
62006;SDS011;47963;53.008;6.754;2022-09-14T08:48:59;5.65;;;1.40;;
62006;SDS011;47963;53.008;6.754;2022-09-14T08:51:27;9.70;;;1.85;;
62006;SDS011;47963;53.008;6.754;2022-09-14T08:53:54;9.02;;;1.90;;
62006;SDS011;47963;53.008;6.754;2022-09-14T09:01:52;7.82;;;1.52;;
62006;SDS011;47963;53.008;6.754;2022-09-14T09:10:03;9.63;;;1.73;;
62006;SDS011;47963;53.008;6.754;2022-09-14T09:12:34;8.35;;;1.67;;
62006;SDS011;47963;53.008;6.754;2022-09-14T09:15:14;12.57;;;2.13;;
62006;SDS011;47963;53.008;6.754;2022-09-14T09:17:49;10.75;;;1.88;;
62006;SDS011;47963;53.008;6.754;2022-09-14T09:20:27;9.55;;;2.05;;
62006;SDS011;47963;53.008;6.754;2022-09-14T09:23:15;8.98;;;1.98;;
62006;SDS011;47963;53.008;6.754;2022-09-14T09:28:33;10.32;;;2.05;;
62006;SDS011;47963;53.008;6.754;2022-09-14T09:31:16;8.60;;;1.88;;
62006;SDS011;47963;53.008;6.754;2022-09-14T09:33:44;10.57;;;1.85;;
62006;SDS011;47963;53.008;6.754;2022-09-14T09:36:12;9.25;;;1.80;;
62006;SDS011;47963;53.008;6.754;2022-09-14T09:38:39;11.75;;;2.00;;
62006;SDS011;47963;53.008;6.754;2022-09-14T09:44:04;11.00;;;2.13;;
62006;SDS011;47963;53.008;6.754;2022-09-14T09:46:33;8.05;;;1.83;;
62006;SDS011;47963;53.008;6.754;2022-09-14T09:52:04;10.07;;;1.70;;
62006;SDS011;47963;53.008;6.754;2022-09-14T09:54:39;11.05;;;1.98;;
62006;SDS011;47963;53.008;6.754;2022-09-14T09:57:18;11.52;;;2.10;;
62006;SDS011;47963;53.008;6.754;2022-09-14T10:02:50;12.55;;;2.10;;
62006;SDS011;47963;53.008;6.754;2022-09-14T10:05:24;8.38;;;1.73;;
62006;SDS011;47963;53.008;6.754;2022-09-14T10:08:05;9.82;;;1.90;;
62006;SDS011;47963;53.008;6.754;2022-09-14T10:10:40;9.20;;;1.55;;
62006;SDS011;47963;53.008;6.754;2022-09-14T10:13:21;12.00;;;2.00;;
62006;SDS011;47963;53.008;6.754;2022-09-14T10:15:52;9.23;;;2.13;;
62006;SDS011;47963;53.008;6.754;2022-09-14T10:18:18;8.95;;;1.85;;
62006;SDS011;47963;53.008;6.754;2022-09-14T10:25:43;9.18;;;1.77;;
62006;SDS011;47963;53.008;6.754;2022-09-14T10:28:17;10.52;;;2.00;;
62006;SDS011;47963;53.008;6.754;2022-09-14T10:30:45;10.27;;;1.73;;
62006;SDS011;47963;53.008;6.754;2022-09-14T10:33:16;11.45;;;1.67;;
62006;SDS011;47963;53.008;6.754;2022-09-14T10:52:58;7.97;;;1.67;;
62006;SDS011;47963;53.008;6.754;2022-09-14T11:01:52;8.90;;;1.83;;
62006;SDS011;47963;53.008;6.754;2022-09-14T11:04:12;7.72;;;1.75;;
62006;SDS011;47963;53.008;6.754;2022-09-14T11:23:41;8.43;;;1.73;;
62006;SDS011;47963;53.008;6.754;2022-09-14T11:31:54;7.20;;;1.50;;
62006;SDS011;47963;53.008;6.754;2022-09-14T11:40:56;7.18;;;1.40;;
62006;SDS011;47963;53.008;6.754;2022-09-14T11:43:42;6.68;;;1.55;;
62006;SDS011;47963;53.008;6.754;2022-09-14T11:46:38;8.75;;;1.75;;
62006;SDS011;47963;53.008;6.754;2022-09-14T11:51:45;6.22;;;1.30;;
62006;SDS011;47963;53.008;6.754;2022-09-14T11:54:19;9.43;;;1.85;;
62006;SDS011;47963;53.008;6.754;2022-09-14T11:57:00;10.65;;;1.95;;
62006;SDS011;47963;53.008;6.754;2022-09-14T12:12:42;10.18;;;1.77;;
62006;SDS011;47963;53.008;6.754;2022-09-14T12:23:06;10.75;;;2.35;;
62006;SDS011;47963;53.008;6.754;2022-09-14T12:25:51;13.40;;;2.13;;
62006;SDS011;47963;53.008;6.754;2022-09-14T12:28:40;10.80;;;1.67;;
62006;SDS011;47963;53.008;6.754;2022-09-14T12:31:12;8.18;;;1.73;;
62006;SDS011;47963;53.008;6.754;2022-09-14T12:34:41;9.23;;;1.80;;
62006;SDS011;47963;53.008;6.754;2022-09-14T12:36:55;11.65;;;2.25;;
62006;SDS011;47963;53.008;6.754;2022-09-14T12:39:24;8.80;;;1.80;;
62006;SDS011;47963;53.008;6.754;2022-09-14T12:44:28;9.68;;;1.90;;
62006;SDS011;47963;53.008;6.754;2022-09-14T12:46:57;8.18;;;1.80;;
62006;SDS011;47963;53.008;6.754;2022-09-14T12:49:43;9.15;;;1.85;;
62006;SDS011;47963;53.008;6.754;2022-09-14T12:52:12;10.68;;;1.88;;
62006;SDS011;47963;53.008;6.754;2022-09-14T12:57:33;11.30;;;2.28;;
62006;SDS011;47963;53.008;6.754;2022-09-14T13:00:18;9.63;;;2.05;;
62006;SDS011;47963;53.008;6.754;2022-09-14T13:03:00;9.20;;;1.75;;
62006;SDS011;47963;53.008;6.754;2022-09-14T13:05:33;9.00;;;1.67;;
62006;SDS011;47963;53.008;6.754;2022-09-14T13:07:59;9.75;;;2.05;;
62006;SDS011;47963;53.008;6.754;2022-09-14T13:10:35;10.52;;;2.28;;
62006;SDS011;47963;53.008;6.754;2022-09-14T13:15:52;7.30;;;1.98;;
62006;SDS011;47963;53.008;6.754;2022-09-14T13:21:28;7.43;;;1.70;;
62006;SDS011;47963;53.008;6.754;2022-09-14T13:23:48;8.35;;;1.88;;
62006;SDS011;47963;53.008;6.754;2022-09-14T13:26:20;9.73;;;1.85;;
62006;SDS011;47963;53.008;6.754;2022-09-14T13:28:50;10.30;;;1.70;;
62006;SDS011;47963;53.008;6.754;2022-09-14T13:31:17;10.15;;;2.00;;
62006;SDS011;47963;53.008;6.754;2022-09-14T13:33:48;10.32;;;2.00;;
62006;SDS011;47963;53.008;6.754;2022-09-14T13:36:16;11.40;;;2.35;;
62006;SDS011;47963;53.008;6.754;2022-09-14T13:38:44;10.45;;;2.10;;
62006;SDS011;47963;53.008;6.754;2022-09-14T13:41:14;11.18;;;2.20;;
62006;SDS011;47963;53.008;6.754;2022-09-14T13:43:42;9.25;;;2.20;;
62006;SDS011;47963;53.008;6.754;2022-09-14T13:46:09;13.77;;;2.13;;
62006;SDS011;47963;53.008;6.754;2022-09-14T13:48:39;7.97;;;1.83;;
62006;SDS011;47963;53.008;6.754;2022-09-14T13:51:07;7.53;;;1.67;;
62006;SDS011;47963;53.008;6.754;2022-09-14T13:58:48;11.45;;;2.17;;
62006;SDS011;47963;53.008;6.754;2022-09-14T14:01:36;11.65;;;2.10;;
62006;SDS011;47963;53.008;6.754;2022-09-14T14:04:04;9.60;;;1.90;;
62006;SDS011;47963;53.008;6.754;2022-09-14T14:06:32;8.75;;;1.92;;
62006;SDS011;47963;53.008;6.754;2022-09-14T14:09:03;12.93;;;2.50;;
62006;SDS011;47963;53.008;6.754;2022-09-14T14:11:43;10.52;;;2.40;;
62006;SDS011;47963;53.008;6.754;2022-09-14T14:19:44;9.35;;;2.10;;
62006;SDS011;47963;53.008;6.754;2022-09-14T14:22:15;8.90;;;2.17;;
62006;SDS011;47963;53.008;6.754;2022-09-14T14:24:47;10.38;;;2.40;;
62006;SDS011;47963;53.008;6.754;2022-09-14T14:27:33;10.57;;;2.60;;
62006;SDS011;47963;53.008;6.754;2022-09-14T14:30:01;11.63;;;2.20;;
62006;SDS011;47963;53.008;6.754;2022-09-14T14:32:37;10.98;;;2.30;;
62006;SDS011;47963;53.008;6.754;2022-09-14T14:35:05;11.27;;;2.58;;
62006;SDS011;47963;53.008;6.754;2022-09-14T14:37:37;12.27;;;2.58;;
62006;SDS011;47963;53.008;6.754;2022-09-14T14:40:03;13.02;;;2.50;;
62006;SDS011;47963;53.008;6.754;2022-09-14T14:42:29;13.10;;;2.58;;
62006;SDS011;47963;53.008;6.754;2022-09-14T14:44:55;11.15;;;2.42;;
62006;SDS011;47963;53.008;6.754;2022-09-14T14:47:21;11.05;;;1.95;;
62006;SDS011;47963;53.008;6.754;2022-09-14T14:49:47;10.48;;;2.40;;
62006;SDS011;47963;53.008;6.754;2022-09-14T14:52:13;9.93;;;2.90;;
62006;SDS011;47963;53.008;6.754;2022-09-14T14:54:39;11.35;;;2.55;;
62006;SDS011;47963;53.008;6.754;2022-09-14T14:57:07;12.23;;;2.58;;
62006;SDS011;47963;53.008;6.754;2022-09-14T14:59:32;10.25;;;2.38;;
62006;SDS011;47963;53.008;6.754;2022-09-14T15:01:58;9.07;;;2.03;;
62006;SDS011;47963;53.008;6.754;2022-09-14T15:04:24;11.32;;;2.47;;
62006;SDS011;47963;53.008;6.754;2022-09-14T15:06:50;12.25;;;2.72;;
62006;SDS011;47963;53.008;6.754;2022-09-14T15:09:26;11.35;;;2.10;;
62006;SDS011;47963;53.008;6.754;2022-09-14T15:11:53;8.65;;;2.40;;
62006;SDS011;47963;53.008;6.754;2022-09-14T15:14:20;10.68;;;2.47;;
62006;SDS011;47963;53.008;6.754;2022-09-14T15:16:47;11.27;;;2.20;;
62006;SDS011;47963;53.008;6.754;2022-09-14T15:19:14;10.90;;;2.50;;
62006;SDS011;47963;53.008;6.754;2022-09-14T15:21:40;11.73;;;2.40;;
62006;SDS011;47963;53.008;6.754;2022-09-14T15:24:07;13.40;;;2.85;;
62006;SDS011;47963;53.008;6.754;2022-09-14T15:26:33;14.27;;;2.30;;
62006;SDS011;47963;53.008;6.754;2022-09-14T15:29:00;9.23;;;2.33;;
62006;SDS011;47963;53.008;6.754;2022-09-14T15:31:26;11.45;;;2.70;;
62006;SDS011;47963;53.008;6.754;2022-09-14T15:33:52;10.02;;;2.35;;
62006;SDS011;47963;53.008;6.754;2022-09-14T15:36:33;14.43;;;2.78;;
62006;SDS011;47963;53.008;6.754;2022-09-14T15:39:03;12.60;;;2.40;;
62006;SDS011;47963;53.008;6.754;2022-09-14T15:41:30;9.85;;;2.20;;
62006;SDS011;47963;53.008;6.754;2022-09-14T15:43:56;11.95;;;2.75;;
62006;SDS011;47963;53.008;6.754;2022-09-14T15:46:22;10.48;;;2.33;;
62006;SDS011;47963;53.008;6.754;2022-09-14T15:48:47;8.50;;;2.15;;
62006;SDS011;47963;53.008;6.754;2022-09-14T15:51:13;13.75;;;2.90;;
62006;SDS011;47963;53.008;6.754;2022-09-14T15:53:39;10.75;;;2.47;;
62006;SDS011;47963;53.008;6.754;2022-09-14T15:56:08;10.90;;;2.50;;
62006;SDS011;47963;53.008;6.754;2022-09-14T15:58:35;12.55;;;2.50;;
62006;SDS011;47963;53.008;6.754;2022-09-14T16:01:11;12.05;;;2.53;;
62006;SDS011;47963;53.008;6.754;2022-09-14T16:03:38;11.50;;;2.75;;
62006;SDS011;47963;53.008;6.754;2022-09-14T16:06:10;11.27;;;2.70;;
62006;SDS011;47963;53.008;6.754;2022-09-14T16:08:37;9.68;;;2.60;;
62006;SDS011;47963;53.008;6.754;2022-09-14T16:11:03;15.40;;;2.60;;
62006;SDS011;47963;53.008;6.754;2022-09-14T16:13:30;14.45;;;2.53;;
62006;SDS011;47963;53.008;6.754;2022-09-14T16:16:01;10.48;;;2.40;;
62006;SDS011;47963;53.008;6.754;2022-09-14T16:18:28;11.50;;;2.53;;
62006;SDS011;47963;53.008;6.754;2022-09-14T16:20:54;10.25;;;2.30;;
62006;SDS011;47963;53.008;6.754;2022-09-14T16:23:19;10.50;;;2.83;;
62006;SDS011;47963;53.008;6.754;2022-09-14T16:25:45;13.15;;;3.15;;
62006;SDS011;47963;53.008;6.754;2022-09-14T16:28:11;15.48;;;2.97;;
62006;SDS011;47963;53.008;6.754;2022-09-14T16:30:37;13.23;;;2.72;;
62006;SDS011;47963;53.008;6.754;2022-09-14T16:33:02;13.80;;;2.60;;
62006;SDS011;47963;53.008;6.754;2022-09-14T16:35:28;14.13;;;2.65;;
62006;SDS011;47963;53.008;6.754;2022-09-14T16:37:54;14.15;;;2.78;;
62006;SDS011;47963;53.008;6.754;2022-09-14T16:40:19;10.48;;;2.70;;
62006;SDS011;47963;53.008;6.754;2022-09-14T16:42:45;11.75;;;2.88;;
62006;SDS011;47963;53.008;6.754;2022-09-14T16:45:12;11.15;;;2.45;;
62006;SDS011;47963;53.008;6.754;2022-09-14T16:47:38;10.93;;;2.25;;
62006;SDS011;47963;53.008;6.754;2022-09-14T16:50:03;10.98;;;2.60;;
62006;SDS011;47963;53.008;6.754;2022-09-14T16:52:29;12.00;;;2.90;;
62006;SDS011;47963;53.008;6.754;2022-09-14T16:54:55;11.65;;;2.53;;
62006;SDS011;47963;53.008;6.754;2022-09-14T16:57:21;14.88;;;3.00;;
62006;SDS011;47963;53.008;6.754;2022-09-14T16:59:49;10.68;;;2.97;;
62006;SDS011;47963;53.008;6.754;2022-09-14T17:02:16;12.98;;;3.03;;
62006;SDS011;47963;53.008;6.754;2022-09-14T17:04:42;11.63;;;2.60;;
62006;SDS011;47963;53.008;6.754;2022-09-14T17:07:07;10.27;;;2.78;;
62006;SDS011;47963;53.008;6.754;2022-09-14T17:09:34;12.88;;;2.78;;
62006;SDS011;47963;53.008;6.754;2022-09-14T17:11:59;13.07;;;2.47;;
62006;SDS011;47963;53.008;6.754;2022-09-14T17:14:29;11.00;;;2.80;;
62006;SDS011;47963;53.008;6.754;2022-09-14T17:16:56;13.25;;;2.88;;
62006;SDS011;47963;53.008;6.754;2022-09-14T17:19:23;11.70;;;2.72;;
62006;SDS011;47963;53.008;6.754;2022-09-14T17:21:49;11.73;;;2.83;;
62006;SDS011;47963;53.008;6.754;2022-09-14T17:24:15;8.40;;;2.55;;
62006;SDS011;47963;53.008;6.754;2022-09-14T17:26:43;10.77;;;3.38;;
62006;SDS011;47963;53.008;6.754;2022-09-14T17:29:09;10.07;;;2.90;;
62006;SDS011;47963;53.008;6.754;2022-09-14T17:31:36;12.30;;;3.00;;
62006;SDS011;47963;53.008;6.754;2022-09-14T17:34:04;16.08;;;3.08;;
62006;SDS011;47963;53.008;6.754;2022-09-14T17:36:31;13.15;;;2.63;;